CFG23QY LICR-LXGB
Flight info
| Callsign | CFG23QY |
|---|---|
| Flight time | 2h 57m |
| Altitude | 19000 |
| Route | PIGER L869 TRP/N0444F370 DCT ABDAB/N0443F380 DCT PAGRE/N0440F370 DCT GOSOS DCT PIMOS |
| Aircraft | A319/M-SDE3FGHIRWY/LB1 |
Departure
| Time | 2026-04-21 00:24 |
|---|---|
| Airport | Reggio Calabria Airport (LICR) |
Arrival
| Time | 2026-04-21 03:21 |
|---|---|
| Airport | Gibraltar Airport (LXGB) |
| Time | Latitude | Longitude | Altitude | Speed | Heading |
|---|---|---|---|---|---|
| 2026-04-20 23:16 | 38.07314 | 15.65329 | 53 ft | 0 kts | 51° |
| 2026-04-21 00:17 | 38.07314 | 15.65331 | 53 ft | 0 kts | 51° |
| 2026-04-21 00:17 | 38.07316 | 15.65334 | 56 ft | 1 kts | 51° |
| 2026-04-21 00:17 | 38.07317 | 15.65335 | 56 ft | 0 kts | 51° |
| 2026-04-21 00:17 | 38.07320 | 15.65339 | 57 ft | 1 kts | 51° |
| 2026-04-21 00:18 | 38.07322 | 15.65348 | 56 ft | 1 kts | 79° |
| 2026-04-21 00:18 | 38.07318 | 15.65350 | 55 ft | 0 kts | 128° |
| 2026-04-21 00:18 | 38.07314 | 15.65349 | 59 ft | 1 kts | 170° |
| 2026-04-21 00:18 | 38.07302 | 15.65339 | 56 ft | 4 kts | 221° |
| 2026-04-21 00:19 | 38.07290 | 15.65295 | 58 ft | 5 kts | 298° |
| 2026-04-21 00:19 | 38.07320 | 15.65261 | 62 ft | 7 kts | 320° |
| 2026-04-21 00:19 | 38.07331 | 15.65208 | 59 ft | 7 kts | 256° |
| 2026-04-21 00:19 | 38.07313 | 15.65154 | 60 ft | 7 kts | 243° |
| 2026-04-21 00:20 | 38.07312 | 15.65152 | 62 ft | 0 kts | 243° |
| 2026-04-21 00:21 | 38.07309 | 15.65145 | 56 ft | 5 kts | 242° |
| 2026-04-21 00:21 | 38.07269 | 15.65081 | 59 ft | 11 kts | 204° |
| 2026-04-21 00:21 | 38.07190 | 15.65109 | 57 ft | 12 kts | 155° |
| 2026-04-21 00:21 | 38.07109 | 15.65161 | 60 ft | 16 kts | 153° |
| 2026-04-21 00:22 | 38.07006 | 15.65229 | 58 ft | 17 kts | 153° |
| 2026-04-21 00:22 | 38.06898 | 15.65299 | 61 ft | 18 kts | 153° |
| 2026-04-21 00:22 | 38.06772 | 15.65381 | 56 ft | 23 kts | 153° |
| 2026-04-21 00:22 | 38.06646 | 15.65488 | 55 ft | 21 kts | 147° |
| 2026-04-21 00:23 | 38.06634 | 15.65472 | 59 ft | 3 kts | 336° |
| 2026-04-21 00:23 | 38.06724 | 15.65418 | 57 ft | 46 kts | 334° |
| 2026-04-21 00:23 | 38.07243 | 15.65077 | 59 ft | 118 kts | 333° |
| 2026-04-21 00:23 | 38.08146 | 15.64495 | 143 ft | 163 kts | 334° |
| 2026-04-21 00:24 | 38.09067 | 15.63884 | 1067 ft | 139 kts | 334° |
| 2026-04-21 00:24 | 38.09918 | 15.63314 | 1688 ft | 139 kts | 332° |
| 2026-04-21 00:24 | 38.10788 | 15.62753 | 2211 ft | 143 kts | 332° |
| 2026-04-21 00:24 | 38.11756 | 15.62166 | 2519 ft | 166 kts | 333° |
| 2026-04-21 00:25 | 38.12874 | 15.61522 | 2841 ft | 187 kts | 335° |
| 2026-04-21 00:25 | 38.14206 | 15.61392 | 3278 ft | 201 kts | 12° |
| 2026-04-21 00:25 | 38.15500 | 15.62243 | 3650 ft | 223 kts | 32° |
| 2026-04-21 00:25 | 38.16854 | 15.63448 | 3998 ft | 250 kts | 34° |
| 2026-04-21 00:26 | 38.18332 | 15.64802 | 4583 ft | 270 kts | 34° |
| 2026-04-21 00:26 | 38.19883 | 15.66214 | 5506 ft | 277 kts | 31° |
| 2026-04-21 00:26 | 38.21658 | 15.67145 | 6453 ft | 278 kts | 8° |
| 2026-04-21 00:26 | 38.23556 | 15.67123 | 7408 ft | 278 kts | 347° |
| 2026-04-21 00:27 | 38.25449 | 15.66593 | 8393 ft | 280 kts | 345° |
| 2026-04-21 00:27 | 38.27359 | 15.66002 | 9323 ft | 283 kts | 344° |
| 2026-04-21 00:27 | 38.29288 | 15.65402 | 10190 ft | 288 kts | 344° |
| 2026-04-21 00:27 | 38.31272 | 15.64617 | 10533 ft | 310 kts | 333° |
| 2026-04-21 00:28 | 38.33244 | 15.63304 | 10951 ft | 327 kts | 329° |
| 2026-04-21 00:28 | 38.35261 | 15.61898 | 11686 ft | 333 kts | 328° |
| 2026-04-21 00:28 | 38.37069 | 15.60077 | 12456 ft | 333 kts | 310° |
| 2026-04-21 00:28 | 38.38293 | 15.57577 | 13242 ft | 335 kts | 291° |
| 2026-04-21 00:29 | 38.38768 | 15.54680 | 14003 ft | 337 kts | 271° |
| 2026-04-21 00:29 | 38.38401 | 15.51721 | 14735 ft | 343 kts | 251° |
| 2026-04-21 00:29 | 38.37365 | 15.48962 | 15455 ft | 348 kts | 245° |
| 2026-04-21 00:29 | 38.36251 | 15.46213 | 16154 ft | 351 kts | 245° |
| 2026-04-21 00:30 | 38.35127 | 15.43441 | 16837 ft | 354 kts | 245° |
| 2026-04-21 00:30 | 38.33996 | 15.40646 | 17494 ft | 357 kts | 245° |
| 2026-04-21 00:30 | 38.32856 | 15.37820 | 18143 ft | 360 kts | 246° |
| 2026-04-21 00:30 | 38.31708 | 15.34969 | 18773 ft | 363 kts | 246° |
| 2026-04-21 00:31 | 38.30552 | 15.32091 | 19395 ft | 367 kts | 246° |
| 2026-04-21 00:31 | 38.29388 | 15.29189 | 20009 ft | 370 kts | 246° |
| 2026-04-21 00:31 | 38.28214 | 15.26267 | 20607 ft | 372 kts | 246° |
| 2026-04-21 00:31 | 38.27022 | 15.23322 | 21183 ft | 376 kts | 245° |
| 2026-04-21 00:32 | 38.25818 | 15.20357 | 21752 ft | 379 kts | 245° |
| 2026-04-21 00:32 | 38.24606 | 15.17370 | 22306 ft | 381 kts | 246° |
| 2026-04-21 00:32 | 38.23382 | 15.14363 | 22827 ft | 384 kts | 245° |
| 2026-04-21 00:32 | 38.22154 | 15.11336 | 23333 ft | 387 kts | 246° |
| 2026-04-21 00:33 | 38.20914 | 15.08281 | 23828 ft | 390 kts | 246° |
| 2026-04-21 00:33 | 38.19666 | 15.05207 | 24296 ft | 393 kts | 246° |
| 2026-04-21 00:33 | 38.18406 | 15.02108 | 24788 ft | 395 kts | 246° |
| 2026-04-21 00:33 | 38.17143 | 14.98999 | 24983 ft | 396 kts | 246° |
| 2026-04-21 00:34 | 38.15878 | 14.95887 | 25194 ft | 398 kts | 246° |
| 2026-04-21 00:34 | 38.14602 | 14.92757 | 25661 ft | 400 kts | 245° |
| 2026-04-21 00:34 | 38.12186 | 14.86835 | 26494 ft | 404 kts | 246° |
| 2026-04-21 00:35 | 38.10887 | 14.83659 | 26894 ft | 406 kts | 245° |
| 2026-04-21 00:35 | 38.09575 | 14.80472 | 27307 ft | 408 kts | 245° |
| 2026-04-21 00:35 | 38.08256 | 14.77270 | 27712 ft | 411 kts | 245° |
| 2026-04-21 00:35 | 38.06933 | 14.74048 | 28109 ft | 413 kts | 245° |
| 2026-04-21 00:36 | 38.05603 | 14.70809 | 28495 ft | 415 kts | 246° |
| 2026-04-21 00:36 | 38.04265 | 14.67551 | 28883 ft | 417 kts | 246° |
| 2026-04-21 00:36 | 38.02922 | 14.64279 | 29243 ft | 419 kts | 246° |
| 2026-04-21 00:36 | 38.01569 | 14.60991 | 29605 ft | 421 kts | 246° |
| 2026-04-21 00:37 | 38.00210 | 14.57695 | 29930 ft | 424 kts | 246° |
| 2026-04-21 00:37 | 37.98840 | 14.54376 | 30257 ft | 426 kts | 245° |
| 2026-04-21 00:37 | 37.97478 | 14.51086 | 30587 ft | 428 kts | 245° |
| 2026-04-21 00:37 | 37.96093 | 14.47746 | 30906 ft | 429 kts | 245° |
| 2026-04-21 00:38 | 37.94700 | 14.44386 | 31216 ft | 432 kts | 245° |
| 2026-04-21 00:38 | 37.93303 | 14.41014 | 31543 ft | 432 kts | 245° |
| 2026-04-21 00:38 | 37.91905 | 14.37648 | 31975 ft | 431 kts | 245° |
| 2026-04-21 00:38 | 37.90512 | 14.34303 | 32420 ft | 429 kts | 245° |
| 2026-04-21 00:39 | 37.89120 | 14.30974 | 32862 ft | 427 kts | 245° |
| 2026-04-21 00:39 | 37.87732 | 14.27650 | 33270 ft | 425 kts | 245° |
| 2026-04-21 00:39 | 37.86355 | 14.24351 | 33686 ft | 423 kts | 245° |
| 2026-04-21 00:39 | 37.84984 | 14.21069 | 34108 ft | 421 kts | 245° |
| 2026-04-21 00:40 | 37.83618 | 14.17798 | 34511 ft | 420 kts | 245° |
| 2026-04-21 00:40 | 37.82258 | 14.14539 | 34901 ft | 418 kts | 245° |
| 2026-04-21 00:40 | 37.80901 | 14.11296 | 35258 ft | 417 kts | 245° |
| 2026-04-21 00:40 | 37.79548 | 14.08058 | 35591 ft | 416 kts | 245° |
| 2026-04-21 00:41 | 37.78199 | 14.04828 | 35912 ft | 415 kts | 245° |
| 2026-04-21 00:41 | 37.76846 | 14.01602 | 36219 ft | 415 kts | 245° |
| 2026-04-21 00:41 | 37.75495 | 13.98388 | 36512 ft | 414 kts | 245° |
| 2026-04-21 00:41 | 37.74164 | 13.95220 | 36793 ft | 413 kts | 245° |
| 2026-04-21 00:42 | 37.72818 | 13.92026 | 37120 ft | 411 kts | 245° |
| 2026-04-21 00:42 | 37.71478 | 13.88851 | 37484 ft | 408 kts | 245° |
| 2026-04-21 00:42 | 37.70145 | 13.85700 | 37834 ft | 406 kts | 245° |
| 2026-04-21 00:42 | 37.68816 | 13.82563 | 38125 ft | 404 kts | 245° |
| 2026-04-21 00:43 | 37.67493 | 13.79442 | 38366 ft | 404 kts | 245° |
| 2026-04-21 00:43 | 37.66168 | 13.76317 | 38594 ft | 403 kts | 245° |
| 2026-04-21 00:43 | 37.64847 | 13.73198 | 38807 ft | 403 kts | 245° |
| 2026-04-21 00:43 | 37.63525 | 13.70080 | 38981 ft | 403 kts | 245° |
| 2026-04-21 00:44 | 37.62202 | 13.66962 | 39037 ft | 403 kts | 245° |
| 2026-04-21 00:44 | 37.59550 | 13.60719 | 39036 ft | 404 kts | 245° |
| 2026-04-21 00:45 | 37.55559 | 13.51361 | 39034 ft | 404 kts | 245° |
| 2026-04-21 00:45 | 37.52902 | 13.45121 | 39035 ft | 404 kts | 245° |
| 2026-04-21 00:46 | 37.50233 | 13.38884 | 39038 ft | 405 kts | 245° |
| 2026-04-21 00:46 | 37.47553 | 13.32650 | 39038 ft | 405 kts | 245° |
| 2026-04-21 00:47 | 37.44865 | 13.26406 | 39037 ft | 410 kts | 245° |
| 2026-04-21 00:47 | 37.42125 | 13.20048 | 39037 ft | 415 kts | 245° |
| 2026-04-21 00:48 | 37.39374 | 13.13656 | 39036 ft | 416 kts | 244° |
| 2026-04-21 00:48 | 37.36608 | 13.07267 | 39036 ft | 416 kts | 244° |
| 2026-04-21 00:49 | 37.33816 | 13.00888 | 39042 ft | 417 kts | 243° |
| 2026-04-21 00:49 | 37.30786 | 12.94661 | 39044 ft | 418 kts | 240° |
| 2026-04-21 00:50 | 37.27648 | 12.88499 | 39045 ft | 419 kts | 240° |
| 2026-04-21 00:50 | 37.24539 | 12.82335 | 39047 ft | 419 kts | 241° |
| 2026-04-21 00:51 | 37.21459 | 12.76131 | 39047 ft | 419 kts | 241° |
| 2026-04-21 00:51 | 37.18397 | 12.69950 | 39041 ft | 423 kts | 241° |
| 2026-04-21 00:52 | 37.15294 | 12.63727 | 39035 ft | 419 kts | 241° |
| 2026-04-21 00:52 | 37.12206 | 12.57537 | 39035 ft | 419 kts | 241° |
| 2026-04-21 00:53 | 37.09111 | 12.51359 | 39028 ft | 418 kts | 241° |
| 2026-04-21 00:53 | 37.06015 | 12.45185 | 39013 ft | 418 kts | 241° |
| 2026-04-21 00:54 | 37.03134 | 12.38892 | 39007 ft | 414 kts | 253° |
| 2026-04-21 00:54 | 37.01496 | 12.31990 | 39011 ft | 414 kts | 256° |
| 2026-04-21 00:55 | 36.99896 | 12.25075 | 39029 ft | 414 kts | 256° |
| 2026-04-21 00:55 | 36.98283 | 12.18144 | 39032 ft | 415 kts | 255° |
| 2026-04-21 00:56 | 36.96658 | 12.11207 | 39036 ft | 415 kts | 255° |
| 2026-04-21 00:56 | 36.95027 | 12.04277 | 39033 ft | 416 kts | 255° |
| 2026-04-21 00:57 | 36.93394 | 11.97348 | 39033 ft | 416 kts | 255° |
| 2026-04-21 00:57 | 36.91757 | 11.90419 | 39034 ft | 416 kts | 255° |
| 2026-04-21 00:58 | 36.90123 | 11.83534 | 39036 ft | 416 kts | 255° |
| 2026-04-21 00:58 | 36.88471 | 11.76602 | 39035 ft | 416 kts | 255° |
| 2026-04-21 00:59 | 36.86820 | 11.69668 | 39032 ft | 416 kts | 255° |
| 2026-04-21 00:59 | 36.85166 | 11.62740 | 39034 ft | 417 kts | 255° |
| 2026-04-21 01:00 | 36.83504 | 11.55805 | 39035 ft | 417 kts | 255° |
| 2026-04-21 01:00 | 36.81835 | 11.48869 | 39035 ft | 417 kts | 255° |
| 2026-04-21 01:01 | 36.80164 | 11.41932 | 39031 ft | 418 kts | 255° |
| 2026-04-21 01:01 | 36.78490 | 11.35002 | 39019 ft | 417 kts | 255° |
| 2026-04-21 01:02 | 36.76811 | 11.28083 | 39020 ft | 417 kts | 255° |
| 2026-04-21 01:02 | 36.75124 | 11.21165 | 39024 ft | 417 kts | 255° |
| 2026-04-21 01:03 | 36.73432 | 11.14250 | 39015 ft | 417 kts | 255° |
| 2026-04-21 01:03 | 36.71773 | 11.07323 | 39017 ft | 416 kts | 258° |
| 2026-04-21 01:04 | 36.71386 | 11.00185 | 39009 ft | 414 kts | 276° |
| 2026-04-21 01:04 | 36.72545 | 10.93200 | 39016 ft | 415 kts | 282° |
| 2026-04-21 01:05 | 36.73833 | 10.86184 | 39009 ft | 415 kts | 282° |
| 2026-04-21 01:05 | 36.75104 | 10.79167 | 39016 ft | 415 kts | 282° |
| 2026-04-21 01:06 | 36.76370 | 10.72143 | 39017 ft | 415 kts | 282° |
| 2026-04-21 01:06 | 36.77638 | 10.65123 | 39014 ft | 415 kts | 282° |
| 2026-04-21 01:07 | 36.78906 | 10.58106 | 39012 ft | 414 kts | 282° |
| 2026-04-21 01:07 | 36.80167 | 10.51094 | 39001 ft | 414 kts | 282° |
| 2026-04-21 01:08 | 36.81427 | 10.44086 | 39003 ft | 414 kts | 282° |
| 2026-04-21 01:08 | 36.82676 | 10.37072 | 39001 ft | 414 kts | 282° |
| 2026-04-21 01:09 | 36.83916 | 10.30058 | 38997 ft | 414 kts | 282° |
| 2026-04-21 01:09 | 36.84908 | 10.24219 | 38990 ft | 414 kts | 278° |
| 2026-04-21 01:10 | 36.85051 | 10.17051 | 38988 ft | 414 kts | 269° |
| 2026-04-21 01:10 | 36.84948 | 10.09863 | 38985 ft | 414 kts | 270° |
| 2026-04-21 01:11 | 36.84844 | 10.02671 | 38990 ft | 414 kts | 270° |
| 2026-04-21 01:11 | 36.84737 | 9.95470 | 38991 ft | 414 kts | 270° |
| 2026-04-21 01:12 | 36.84618 | 9.88273 | 38995 ft | 414 kts | 269° |
| 2026-04-21 01:12 | 36.84492 | 9.81125 | 38997 ft | 414 kts | 270° |
| 2026-04-21 01:13 | 36.84367 | 9.73937 | 38992 ft | 414 kts | 269° |
| 2026-04-21 01:13 | 36.84236 | 9.66744 | 38995 ft | 415 kts | 269° |
| 2026-04-21 01:14 | 36.84095 | 9.59533 | 38999 ft | 415 kts | 269° |
| 2026-04-21 01:14 | 36.83957 | 9.52333 | 38998 ft | 415 kts | 269° |
| 2026-04-21 01:15 | 36.83817 | 9.45100 | 39006 ft | 417 kts | 269° |
| 2026-04-21 01:15 | 36.83690 | 9.37863 | 39005 ft | 417 kts | 270° |
| 2026-04-21 01:16 | 36.83694 | 9.30635 | 39007 ft | 416 kts | 271° |
| 2026-04-21 01:16 | 36.83720 | 9.23411 | 38999 ft | 416 kts | 271° |
| 2026-04-21 01:17 | 36.83717 | 9.16189 | 39000 ft | 416 kts | 271° |
| 2026-04-21 01:17 | 36.83693 | 9.09018 | 39015 ft | 416 kts | 270° |
| 2026-04-21 01:18 | 36.83659 | 9.01811 | 39013 ft | 416 kts | 270° |
| 2026-04-21 01:18 | 36.83614 | 8.94595 | 39005 ft | 415 kts | 270° |
| 2026-04-21 01:19 | 36.83580 | 8.87390 | 39013 ft | 415 kts | 270° |
| 2026-04-21 01:19 | 36.83544 | 8.80187 | 39007 ft | 415 kts | 270° |
| 2026-04-21 01:20 | 36.83502 | 8.72978 | 39006 ft | 415 kts | 270° |
| 2026-04-21 01:20 | 36.83442 | 8.65774 | 39014 ft | 415 kts | 270° |
| 2026-04-21 01:21 | 36.83420 | 8.58560 | 39012 ft | 415 kts | 271° |
| 2026-04-21 01:21 | 36.83446 | 8.51346 | 39014 ft | 416 kts | 271° |
| 2026-04-21 01:22 | 36.83453 | 8.44131 | 39013 ft | 416 kts | 271° |
| 2026-04-21 01:22 | 36.83448 | 8.36910 | 39011 ft | 416 kts | 271° |
| 2026-04-21 01:23 | 36.83433 | 8.29681 | 39008 ft | 416 kts | 271° |
| 2026-04-21 01:23 | 36.83417 | 8.22454 | 39008 ft | 416 kts | 271° |
| 2026-04-21 01:24 | 36.83401 | 8.15217 | 39005 ft | 417 kts | 271° |
| 2026-04-21 01:24 | 36.83370 | 8.07982 | 39004 ft | 417 kts | 271° |
| 2026-04-21 01:25 | 36.83342 | 8.00743 | 39002 ft | 417 kts | 271° |
| 2026-04-21 01:25 | 36.83313 | 7.93516 | 39002 ft | 416 kts | 271° |
| 2026-04-21 01:26 | 36.83277 | 7.86287 | 38995 ft | 416 kts | 271° |
| 2026-04-21 01:26 | 36.83233 | 7.79113 | 38995 ft | 416 kts | 270° |
| 2026-04-21 01:27 | 36.83152 | 7.71893 | 38991 ft | 416 kts | 270° |
| 2026-04-21 01:27 | 36.83063 | 7.64679 | 38990 ft | 415 kts | 270° |
| 2026-04-21 01:28 | 36.82983 | 7.57472 | 38992 ft | 416 kts | 270° |
| 2026-04-21 01:28 | 36.82896 | 7.50253 | 38992 ft | 416 kts | 270° |
| 2026-04-21 01:29 | 36.82804 | 7.43040 | 38996 ft | 415 kts | 270° |
| 2026-04-21 01:29 | 36.82711 | 7.35826 | 39004 ft | 416 kts | 270° |
| 2026-04-21 01:30 | 36.82602 | 7.28606 | 39004 ft | 416 kts | 270° |
| 2026-04-21 01:30 | 36.82498 | 7.21389 | 39009 ft | 416 kts | 270° |
| 2026-04-21 01:31 | 36.82395 | 7.14227 | 39010 ft | 415 kts | 270° |
| 2026-04-21 01:31 | 36.82280 | 7.07018 | 39012 ft | 415 kts | 270° |
| 2026-04-21 01:32 | 36.82157 | 6.99806 | 39020 ft | 415 kts | 270° |
| 2026-04-21 01:32 | 36.82040 | 6.92595 | 39026 ft | 415 kts | 270° |
| 2026-04-21 01:33 | 36.81915 | 6.85390 | 39029 ft | 415 kts | 270° |
| 2026-04-21 01:33 | 36.81779 | 6.78184 | 39037 ft | 415 kts | 270° |
| 2026-04-21 01:34 | 36.81649 | 6.70983 | 39044 ft | 415 kts | 270° |
| 2026-04-21 01:34 | 36.81515 | 6.63788 | 39055 ft | 419 kts | 270° |
| 2026-04-21 01:35 | 36.81363 | 6.56497 | 39061 ft | 420 kts | 270° |
| 2026-04-21 01:35 | 36.81211 | 6.49291 | 39008 ft | 416 kts | 270° |
| 2026-04-21 01:36 | 36.81053 | 6.42087 | 39012 ft | 415 kts | 270° |
| 2026-04-21 01:36 | 36.80895 | 6.34881 | 39003 ft | 416 kts | 270° |
| 2026-04-21 01:37 | 36.80740 | 6.27676 | 39001 ft | 415 kts | 269° |
| 2026-04-21 01:37 | 36.80576 | 6.20466 | 38995 ft | 415 kts | 269° |
| 2026-04-21 01:38 | 36.80399 | 6.13267 | 38986 ft | 415 kts | 269° |
| 2026-04-21 01:38 | 36.80224 | 6.06066 | 38982 ft | 415 kts | 269° |
| 2026-04-21 01:39 | 36.80049 | 5.98861 | 38976 ft | 415 kts | 269° |
| 2026-04-21 01:39 | 36.79865 | 5.91659 | 38973 ft | 415 kts | 269° |
| 2026-04-21 01:40 | 36.79457 | 5.84483 | 38967 ft | 415 kts | 264° |
| 2026-04-21 01:40 | 36.78746 | 5.77332 | 38965 ft | 415 kts | 264° |
| 2026-04-21 01:41 | 36.78017 | 5.70170 | 38965 ft | 416 kts | 264° |
| 2026-04-21 01:41 | 36.77292 | 5.63003 | 38966 ft | 416 kts | 264° |
| 2026-04-21 01:42 | 36.76566 | 5.55840 | 38962 ft | 416 kts | 264° |
| 2026-04-21 01:42 | 36.75829 | 5.48685 | 38961 ft | 416 kts | 264° |
| 2026-04-21 01:43 | 36.75099 | 5.41536 | 38961 ft | 415 kts | 264° |
| 2026-04-21 01:43 | 36.74362 | 5.34438 | 38966 ft | 416 kts | 264° |
| 2026-04-21 01:44 | 36.73609 | 5.27297 | 38967 ft | 415 kts | 264° |
| 2026-04-21 01:44 | 36.72858 | 5.20155 | 38966 ft | 415 kts | 264° |
| 2026-04-21 01:45 | 36.72105 | 5.13017 | 38966 ft | 416 kts | 264° |
| 2026-04-21 01:45 | 36.71393 | 5.05866 | 38969 ft | 416 kts | 265° |
| 2026-04-21 01:46 | 36.71060 | 4.98680 | 38968 ft | 415 kts | 269° |
| 2026-04-21 01:46 | 36.70892 | 4.91491 | 38963 ft | 415 kts | 269° |
| 2026-04-21 01:47 | 36.70677 | 4.84304 | 38959 ft | 415 kts | 268° |
| 2026-04-21 01:47 | 36.70391 | 4.77118 | 38960 ft | 415 kts | 268° |
| 2026-04-21 01:48 | 36.70093 | 4.69932 | 38964 ft | 415 kts | 268° |
| 2026-04-21 01:48 | 36.69799 | 4.62739 | 38967 ft | 415 kts | 268° |
| 2026-04-21 01:49 | 36.69505 | 4.55543 | 38973 ft | 416 kts | 268° |
| 2026-04-21 01:49 | 36.69201 | 4.48335 | 38977 ft | 417 kts | 268° |
| 2026-04-21 01:50 | 36.68902 | 4.41121 | 38983 ft | 417 kts | 267° |
| 2026-04-21 01:50 | 36.68596 | 4.33901 | 38989 ft | 418 kts | 267° |
| 2026-04-21 01:51 | 36.68284 | 4.26675 | 38987 ft | 418 kts | 267° |
| 2026-04-21 01:51 | 36.67965 | 4.19447 | 38991 ft | 418 kts | 267° |
| 2026-04-21 01:52 | 36.67475 | 4.08610 | 38990 ft | 418 kts | 267° |
| 2026-04-21 01:53 | 36.67141 | 4.01378 | 38991 ft | 418 kts | 267° |
| 2026-04-21 01:53 | 36.66807 | 3.94151 | 38986 ft | 418 kts | 267° |
| 2026-04-21 01:54 | 36.66472 | 3.86929 | 38980 ft | 417 kts | 266° |
| 2026-04-21 01:54 | 36.66133 | 3.79764 | 38975 ft | 417 kts | 266° |
| 2026-04-21 01:55 | 36.65790 | 3.72544 | 38976 ft | 418 kts | 266° |
| 2026-04-21 01:55 | 36.65442 | 3.65331 | 38972 ft | 417 kts | 266° |
| 2026-04-21 01:56 | 36.65261 | 3.58120 | 38966 ft | 416 kts | 275° |
| 2026-04-21 01:56 | 36.66009 | 3.50964 | 38965 ft | 417 kts | 277° |
| 2026-04-21 01:57 | 36.66771 | 3.43802 | 38963 ft | 417 kts | 277° |
| 2026-04-21 01:57 | 36.67398 | 3.37839 | 38960 ft | 417 kts | 277° |
| 2026-04-21 01:58 | 36.68154 | 3.30669 | 38967 ft | 418 kts | 277° |
| 2026-04-21 01:58 | 36.68895 | 3.23496 | 38964 ft | 417 kts | 275° |
| 2026-04-21 01:58 | 36.68877 | 3.18721 | 38961 ft | 417 kts | 264° |
| 2026-04-21 01:59 | 36.68666 | 3.16291 | 38959 ft | 417 kts | 264° |
| 2026-04-21 01:59 | 36.68050 | 3.09112 | 38961 ft | 417 kts | 264° |
| 2026-04-21 02:00 | 36.67446 | 3.01930 | 38963 ft | 417 kts | 264° |
| 2026-04-21 02:00 | 36.66843 | 2.94743 | 38964 ft | 417 kts | 264° |
| 2026-04-21 02:01 | 36.66229 | 2.87598 | 38968 ft | 418 kts | 264° |
| 2026-04-21 02:01 | 36.65599 | 2.80399 | 38969 ft | 418 kts | 264° |
| 2026-04-21 02:02 | 36.64969 | 2.73191 | 38970 ft | 419 kts | 264° |
| 2026-04-21 02:02 | 36.64339 | 2.65975 | 38973 ft | 418 kts | 264° |
| 2026-04-21 02:03 | 36.63703 | 2.58757 | 38985 ft | 421 kts | 264° |
| 2026-04-21 02:03 | 36.63059 | 2.51511 | 38987 ft | 420 kts | 264° |
| 2026-04-21 02:04 | 36.62416 | 2.44280 | 38986 ft | 420 kts | 263° |
| 2026-04-21 02:04 | 36.61767 | 2.37057 | 38984 ft | 420 kts | 263° |
| 2026-04-21 02:05 | 36.61099 | 2.29842 | 38987 ft | 419 kts | 263° |
| 2026-04-21 02:05 | 36.60437 | 2.22674 | 38980 ft | 419 kts | 263° |
| 2026-04-21 02:06 | 36.58926 | 2.15691 | 38979 ft | 420 kts | 248° |
| 2026-04-21 02:06 | 36.56652 | 2.08990 | 38979 ft | 421 kts | 248° |
| 2026-04-21 02:07 | 36.54380 | 2.02276 | 38980 ft | 421 kts | 248° |
| 2026-04-21 02:07 | 36.52110 | 1.95560 | 38978 ft | 421 kts | 248° |
| 2026-04-21 02:08 | 36.49830 | 1.88855 | 38984 ft | 422 kts | 248° |
| 2026-04-21 02:08 | 36.47910 | 1.82005 | 38971 ft | 420 kts | 263° |
| 2026-04-21 02:09 | 36.47451 | 1.74772 | 38978 ft | 420 kts | 265° |
| 2026-04-21 02:09 | 36.47060 | 1.67522 | 38980 ft | 420 kts | 266° |
| 2026-04-21 02:10 | 36.46674 | 1.60326 | 38983 ft | 420 kts | 265° |
| 2026-04-21 02:10 | 36.46271 | 1.53080 | 38972 ft | 417 kts | 265° |
| 2026-04-21 02:11 | 36.45856 | 1.45903 | 38971 ft | 419 kts | 265° |
| 2026-04-21 02:11 | 36.45431 | 1.38679 | 38981 ft | 420 kts | 265° |
| 2026-04-21 02:12 | 36.44881 | 1.31466 | 38979 ft | 419 kts | 256° |
| 2026-04-21 02:12 | 36.43840 | 1.28102 | 38974 ft | 419 kts | 242° |
| 2026-04-21 02:12 | 36.42398 | 1.24952 | 38971 ft | 419 kts | 241° |
| 2026-04-21 02:13 | 36.39479 | 1.18678 | 38970 ft | 419 kts | 240° |
| 2026-04-21 02:13 | 36.36549 | 1.12410 | 38976 ft | 420 kts | 240° |
| 2026-04-21 02:14 | 36.33624 | 1.06136 | 38969 ft | 420 kts | 241° |
| 2026-04-21 02:14 | 36.30697 | 0.99864 | 38976 ft | 420 kts | 240° |
| 2026-04-21 02:15 | 36.27768 | 0.93598 | 38979 ft | 420 kts | 240° |
| 2026-04-21 02:15 | 36.24829 | 0.87332 | 38977 ft | 420 kts | 240° |
| 2026-04-21 02:16 | 36.21885 | 0.81073 | 38981 ft | 421 kts | 240° |
| 2026-04-21 02:16 | 36.18944 | 0.74820 | 38981 ft | 420 kts | 240° |
| 2026-04-21 02:17 | 36.16002 | 0.68581 | 38979 ft | 419 kts | 240° |
| 2026-04-21 02:17 | 36.13057 | 0.62353 | 38985 ft | 420 kts | 240° |
| 2026-04-21 02:18 | 36.10107 | 0.56121 | 38985 ft | 420 kts | 240° |
| 2026-04-21 02:18 | 36.07154 | 0.49888 | 38986 ft | 420 kts | 240° |
| 2026-04-21 02:19 | 36.04214 | 0.43691 | 38987 ft | 421 kts | 240° |
| 2026-04-21 02:19 | 36.01249 | 0.37458 | 38993 ft | 421 kts | 240° |
| 2026-04-21 02:20 | 35.98282 | 0.31227 | 38988 ft | 421 kts | 240° |
| 2026-04-21 02:20 | 35.95308 | 0.24998 | 38997 ft | 421 kts | 240° |
| 2026-04-21 02:21 | 35.92322 | 0.18767 | 38997 ft | 422 kts | 240° |
| 2026-04-21 02:21 | 35.89440 | 0.12469 | 38992 ft | 421 kts | 248° |
| 2026-04-21 02:21 | 35.88637 | 0.09013 | 38989 ft | 421 kts | 261° |
| 2026-04-21 02:22 | 35.88583 | 0.05416 | 38982 ft | 423 kts | 276° |
| 2026-04-21 02:22 | 35.90123 | -0.01609 | 38963 ft | 425 kts | 285° |
| 2026-04-21 02:23 | 35.91856 | -0.08577 | 38978 ft | 424 kts | 285° |
| 2026-04-21 02:23 | 35.93571 | -0.15513 | 38981 ft | 422 kts | 285° |
| 2026-04-21 02:24 | 35.95252 | -0.22442 | 38979 ft | 421 kts | 284° |
| 2026-04-21 02:24 | 35.96918 | -0.29364 | 38974 ft | 420 kts | 284° |
| 2026-04-21 02:25 | 35.98584 | -0.36282 | 38970 ft | 420 kts | 284° |
| 2026-04-21 02:25 | 36.00239 | -0.43189 | 38967 ft | 420 kts | 284° |
| 2026-04-21 02:26 | 36.01903 | -0.50113 | 38946 ft | 421 kts | 284° |
| 2026-04-21 02:26 | 36.03569 | -0.57060 | 38938 ft | 423 kts | 284° |
| 2026-04-21 02:27 | 36.05240 | -0.64043 | 38936 ft | 424 kts | 284° |
| 2026-04-21 02:27 | 36.06909 | -0.71050 | 38945 ft | 426 kts | 284° |
| 2026-04-21 02:28 | 36.08568 | -0.78075 | 38948 ft | 426 kts | 284° |
| 2026-04-21 02:28 | 36.10224 | -0.85105 | 38952 ft | 426 kts | 284° |
| 2026-04-21 02:29 | 36.11873 | -0.92084 | 38953 ft | 426 kts | 284° |
| 2026-04-21 02:29 | 36.13520 | -0.99103 | 38952 ft | 425 kts | 284° |
| 2026-04-21 02:30 | 36.15163 | -1.06130 | 38950 ft | 425 kts | 284° |
| 2026-04-21 02:30 | 36.16805 | -1.13154 | 38949 ft | 425 kts | 283° |
| 2026-04-21 02:31 | 36.18449 | -1.20186 | 38952 ft | 426 kts | 284° |
| 2026-04-21 02:31 | 36.20085 | -1.27228 | 38953 ft | 426 kts | 284° |
| 2026-04-21 02:32 | 36.21716 | -1.34277 | 38956 ft | 426 kts | 283° |
| 2026-04-21 02:32 | 36.23339 | -1.41323 | 38954 ft | 425 kts | 283° |
| 2026-04-21 02:33 | 36.24959 | -1.48377 | 38954 ft | 425 kts | 283° |
| 2026-04-21 02:33 | 36.26519 | -1.55440 | 38950 ft | 424 kts | 282° |
| 2026-04-21 02:34 | 36.27972 | -1.62526 | 38950 ft | 424 kts | 282° |
| 2026-04-21 02:34 | 36.29410 | -1.69614 | 38948 ft | 424 kts | 282° |
| 2026-04-21 02:35 | 36.30858 | -1.76654 | 38944 ft | 424 kts | 282° |
| 2026-04-21 02:35 | 36.32220 | -1.83763 | 38942 ft | 422 kts | 274° |
| 2026-04-21 02:36 | 36.31943 | -1.90983 | 38940 ft | 419 kts | 264° |
| 2026-04-21 02:36 | 36.31425 | -1.98194 | 38938 ft | 420 kts | 264° |
| 2026-04-21 02:37 | 36.30896 | -2.05414 | 38937 ft | 421 kts | 264° |
| 2026-04-21 02:37 | 36.30373 | -2.12633 | 38938 ft | 421 kts | 264° |
| 2026-04-21 02:38 | 36.29853 | -2.19855 | 38937 ft | 421 kts | 264° |
| 2026-04-21 02:38 | 36.29331 | -2.27076 | 38937 ft | 420 kts | 264° |
| 2026-04-21 02:39 | 36.28795 | -2.34282 | 38936 ft | 420 kts | 263° |
| 2026-04-21 02:39 | 36.28252 | -2.41480 | 38935 ft | 419 kts | 263° |
| 2026-04-21 02:40 | 36.27709 | -2.48674 | 38941 ft | 419 kts | 264° |
| 2026-04-21 02:40 | 36.27171 | -2.55866 | 38936 ft | 419 kts | 263° |
| 2026-04-21 02:41 | 36.26627 | -2.63054 | 38937 ft | 419 kts | 263° |
| 2026-04-21 02:41 | 36.26069 | -2.70237 | 38942 ft | 419 kts | 263° |
| 2026-04-21 02:42 | 36.25511 | -2.77411 | 38942 ft | 418 kts | 263° |
| 2026-04-21 02:42 | 36.24953 | -2.84526 | 38942 ft | 417 kts | 263° |
| 2026-04-21 02:43 | 36.24390 | -2.91681 | 38940 ft | 417 kts | 263° |
| 2026-04-21 02:43 | 36.23820 | -2.98826 | 38943 ft | 417 kts | 263° |
| 2026-04-21 02:44 | 36.23254 | -3.05972 | 38946 ft | 416 kts | 263° |
| 2026-04-21 02:44 | 36.22682 | -3.13110 | 38951 ft | 416 kts | 263° |
| 2026-04-21 02:45 | 36.22104 | -3.20241 | 38953 ft | 415 kts | 263° |
| 2026-04-21 02:45 | 36.21621 | -3.26157 | 38954 ft | 415 kts | 263° |
| 2026-04-21 02:46 | 36.20933 | -3.34420 | 38957 ft | 415 kts | 263° |
| 2026-04-21 02:46 | 36.20438 | -3.40358 | 38957 ft | 413 kts | 263° |
| 2026-04-21 02:47 | 36.19853 | -3.47393 | 38957 ft | 413 kts | 263° |
| 2026-04-21 02:47 | 36.19260 | -3.54462 | 38956 ft | 412 kts | 263° |
| 2026-04-21 02:48 | 36.18661 | -3.61524 | 38957 ft | 412 kts | 263° |
| 2026-04-21 02:48 | 36.18052 | -3.68579 | 38954 ft | 412 kts | 263° |
| 2026-04-21 02:49 | 36.17451 | -3.75611 | 38951 ft | 411 kts | 263° |
| 2026-04-21 02:49 | 36.16846 | -3.82634 | 38950 ft | 410 kts | 263° |
| 2026-04-21 02:50 | 36.16236 | -3.89644 | 38953 ft | 409 kts | 263° |
| 2026-04-21 02:50 | 36.15625 | -3.96647 | 38954 ft | 409 kts | 263° |
| 2026-04-21 02:51 | 36.15007 | -4.03651 | 38958 ft | 411 kts | 263° |
| 2026-04-21 02:51 | 36.14386 | -4.10648 | 38962 ft | 411 kts | 263° |
| 2026-04-21 02:52 | 36.13757 | -4.17699 | 38955 ft | 410 kts | 263° |
| 2026-04-21 02:52 | 36.13130 | -4.24658 | 38951 ft | 409 kts | 263° |
| 2026-04-21 02:53 | 36.12490 | -4.31644 | 38945 ft | 408 kts | 263° |
| 2026-04-21 02:53 | 36.11854 | -4.38612 | 38941 ft | 408 kts | 263° |
| 2026-04-21 02:54 | 36.11216 | -4.45580 | 38937 ft | 408 kts | 263° |
| 2026-04-21 02:54 | 36.10569 | -4.52560 | 38938 ft | 408 kts | 262° |
| 2026-04-21 02:55 | 36.09918 | -4.59549 | 38598 ft | 412 kts | 262° |
| 2026-04-21 02:55 | 36.09585 | -4.63106 | 37773 ft | 417 kts | 262° |
| 2026-04-21 02:55 | 36.09252 | -4.66663 | 37072 ft | 417 kts | 262° |
| 2026-04-21 02:55 | 36.08919 | -4.70229 | 36297 ft | 418 kts | 262° |
| 2026-04-21 02:56 | 36.08461 | -4.73784 | 35454 ft | 419 kts | 256° |
| 2026-04-21 02:56 | 36.07045 | -4.80838 | 32578 ft | 431 kts | 255° |
| 2026-04-21 02:56 | 36.06315 | -4.84435 | 31264 ft | 432 kts | 255° |
| 2026-04-21 02:57 | 36.05580 | -4.88041 | 30074 ft | 431 kts | 255° |
| 2026-04-21 02:57 | 36.04864 | -4.91553 | 29667 ft | 414 kts | 255° |
| 2026-04-21 02:57 | 36.04166 | -4.94991 | 29032 ft | 411 kts | 255° |
| 2026-04-21 02:57 | 36.03476 | -4.98404 | 28419 ft | 407 kts | 255° |
| 2026-04-21 02:58 | 36.02791 | -5.01790 | 27808 ft | 404 kts | 255° |
| 2026-04-21 02:58 | 36.02113 | -5.05140 | 27203 ft | 400 kts | 255° |
| 2026-04-21 02:58 | 36.01440 | -5.08453 | 26611 ft | 396 kts | 255° |
| 2026-04-21 02:58 | 36.00768 | -5.11741 | 26019 ft | 393 kts | 255° |
| 2026-04-21 02:59 | 36.00102 | -5.14991 | 25447 ft | 389 kts | 255° |
| 2026-04-21 02:59 | 35.99442 | -5.18205 | 24899 ft | 385 kts | 255° |
| 2026-04-21 02:59 | 35.98786 | -5.21390 | 24356 ft | 381 kts | 255° |
| 2026-04-21 02:59 | 35.98147 | -5.24500 | 23852 ft | 376 kts | 255° |
| 2026-04-21 03:00 | 35.97498 | -5.27657 | 23338 ft | 373 kts | 255° |
| 2026-04-21 03:00 | 35.96868 | -5.30710 | 22863 ft | 370 kts | 255° |
| 2026-04-21 03:00 | 35.96237 | -5.33775 | 22378 ft | 367 kts | 255° |
| 2026-04-21 03:00 | 35.95612 | -5.36807 | 21952 ft | 362 kts | 255° |
| 2026-04-21 03:01 | 35.94994 | -5.39800 | 21513 ft | 358 kts | 255° |
| 2026-04-21 03:01 | 35.94378 | -5.42772 | 21031 ft | 355 kts | 255° |
| 2026-04-21 03:01 | 35.93767 | -5.45712 | 20560 ft | 352 kts | 255° |
| 2026-04-21 03:01 | 35.93160 | -5.48626 | 20065 ft | 350 kts | 255° |
| 2026-04-21 03:02 | 35.92555 | -5.51525 | 19569 ft | 347 kts | 255° |
| 2026-04-21 03:02 | 35.91957 | -5.54404 | 19073 ft | 345 kts | 255° |
| 2026-04-21 03:02 | 35.91362 | -5.57266 | 18577 ft | 343 kts | 255° |
| 2026-04-21 03:02 | 35.90769 | -5.60111 | 18074 ft | 342 kts | 255° |
| 2026-04-21 03:03 | 35.90176 | -5.62944 | 17573 ft | 340 kts | 255° |
| 2026-04-21 03:03 | 35.89587 | -5.65760 | 17091 ft | 338 kts | 255° |
| 2026-04-21 03:03 | 35.88993 | -5.68562 | 16587 ft | 338 kts | 253° |
| 2026-04-21 03:03 | 35.87981 | -5.71174 | 16086 ft | 340 kts | 233° |
| 2026-04-21 03:04 | 35.86508 | -5.73451 | 15584 ft | 339 kts | 230° |
| 2026-04-21 03:04 | 35.85003 | -5.75698 | 14961 ft | 341 kts | 230° |
| 2026-04-21 03:04 | 35.83494 | -5.77953 | 14336 ft | 342 kts | 230° |
| 2026-04-21 03:04 | 35.81985 | -5.80218 | 13704 ft | 342 kts | 230° |
| 2026-04-21 03:05 | 35.80476 | -5.82489 | 13080 ft | 342 kts | 230° |
| 2026-04-21 03:05 | 35.78974 | -5.84760 | 12458 ft | 341 kts | 230° |
| 2026-04-21 03:05 | 35.77479 | -5.87029 | 11826 ft | 341 kts | 230° |
| 2026-04-21 03:05 | 35.75994 | -5.89294 | 11199 ft | 339 kts | 230° |
| 2026-04-21 03:06 | 35.74793 | -5.91783 | 10561 ft | 340 kts | 245° |
| 2026-04-21 03:06 | 35.73748 | -5.94376 | 9929 ft | 337 kts | 232° |
| 2026-04-21 03:06 | 35.72149 | -5.96462 | 9310 ft | 335 kts | 225° |
| 2026-04-21 03:06 | 35.70862 | -5.98839 | 8709 ft | 335 kts | 246° |
| 2026-04-21 03:07 | 35.70352 | -6.01576 | 8541 ft | 323 kts | 265° |
| 2026-04-21 03:07 | 35.70572 | -6.04262 | 8417 ft | 311 kts | 284° |
| 2026-04-21 03:07 | 35.71447 | -6.06631 | 8292 ft | 300 kts | 303° |
| 2026-04-21 03:07 | 35.72852 | -6.08491 | 8163 ft | 297 kts | 322° |
| 2026-04-21 03:08 | 35.74629 | -6.09705 | 8039 ft | 297 kts | 340° |
| 2026-04-21 03:08 | 35.76647 | -6.10196 | 7922 ft | 296 kts | 359° |
| 2026-04-21 03:08 | 35.78680 | -6.09898 | 7787 ft | 295 kts | 17° |
| 2026-04-21 03:08 | 35.80528 | -6.08847 | 7667 ft | 293 kts | 36° |
| 2026-04-21 03:09 | 35.82019 | -6.07160 | 7542 ft | 291 kts | 53° |
| 2026-04-21 03:09 | 35.83012 | -6.05018 | 7411 ft | 288 kts | 71° |
| 2026-04-21 03:09 | 35.83437 | -6.02632 | 7290 ft | 285 kts | 88° |
| 2026-04-21 03:09 | 35.83418 | -6.00201 | 7167 ft | 284 kts | 93° |
| 2026-04-21 03:10 | 35.83368 | -5.97770 | 7042 ft | 282 kts | 94° |
| 2026-04-21 03:10 | 35.83325 | -5.95365 | 6921 ft | 280 kts | 92° |
| 2026-04-21 03:10 | 35.83608 | -5.92991 | 6783 ft | 282 kts | 74° |
| 2026-04-21 03:10 | 35.84484 | -5.90823 | 6664 ft | 284 kts | 60° |
| 2026-04-21 03:11 | 35.85350 | -5.88649 | 6537 ft | 281 kts | 71° |
| 2026-04-21 03:11 | 35.86050 | -5.86409 | 6411 ft | 280 kts | 72° |
| 2026-04-21 03:11 | 35.86743 | -5.84172 | 6286 ft | 279 kts | 72° |
| 2026-04-21 03:11 | 35.87430 | -5.81935 | 6160 ft | 278 kts | 72° |
| 2026-04-21 03:12 | 35.88107 | -5.79707 | 6033 ft | 277 kts | 72° |
| 2026-04-21 03:12 | 35.88776 | -5.77486 | 5908 ft | 276 kts | 72° |
| 2026-04-21 03:12 | 35.89440 | -5.75268 | 5784 ft | 275 kts | 72° |
| 2026-04-21 03:12 | 35.90103 | -5.73055 | 5659 ft | 274 kts | 72° |
| 2026-04-21 03:13 | 35.90760 | -5.70856 | 5534 ft | 273 kts | 72° |
| 2026-04-21 03:13 | 35.91420 | -5.68662 | 5408 ft | 272 kts | 72° |
| 2026-04-21 03:13 | 35.92079 | -5.66478 | 5280 ft | 272 kts | 72° |
| 2026-04-21 03:13 | 35.92739 | -5.64295 | 5154 ft | 271 kts | 72° |
| 2026-04-21 03:14 | 35.93393 | -5.62125 | 5029 ft | 270 kts | 72° |
| 2026-04-21 03:14 | 35.94044 | -5.59956 | 4900 ft | 269 kts | 72° |
| 2026-04-21 03:14 | 35.94689 | -5.57801 | 4782 ft | 267 kts | 72° |
| 2026-04-21 03:14 | 35.95334 | -5.55644 | 4404 ft | 266 kts | 71° |
| 2026-04-21 03:15 | 35.95970 | -5.53515 | 3957 ft | 263 kts | 71° |
| 2026-04-21 03:15 | 35.96601 | -5.51403 | 3517 ft | 261 kts | 71° |
| 2026-04-21 03:15 | 35.97210 | -5.49363 | 3427 ft | 245 kts | 71° |
| 2026-04-21 03:15 | 35.97782 | -5.47447 | 3358 ft | 231 kts | 71° |
| 2026-04-21 03:16 | 35.98323 | -5.45640 | 3271 ft | 218 kts | 71° |
| 2026-04-21 03:16 | 35.98833 | -5.43928 | 3183 ft | 207 kts | 71° |
| 2026-04-21 03:16 | 35.99330 | -5.42314 | 3096 ft | 196 kts | 67° |
| 2026-04-21 03:16 | 36.00207 | -5.41075 | 3019 ft | 197 kts | 32° |
| 2026-04-21 03:17 | 36.01544 | -5.40695 | 2796 ft | 204 kts | 355° |
| 2026-04-21 03:17 | 36.02896 | -5.41169 | 2531 ft | 204 kts | 347° |
| 2026-04-21 03:17 | 36.04283 | -5.41437 | 2304 ft | 198 kts | 356° |
| 2026-04-21 03:17 | 36.05622 | -5.41586 | 2027 ft | 186 kts | 358° |
| 2026-04-21 03:18 | 36.06851 | -5.41717 | 1791 ft | 165 kts | 357° |
| 2026-04-21 03:18 | 36.07924 | -5.41830 | 1581 ft | 145 kts | 358° |
| 2026-04-21 03:18 | 36.08939 | -5.41925 | 1418 ft | 146 kts | 358° |
| 2026-04-21 03:18 | 36.09949 | -5.42014 | 1212 ft | 146 kts | 358° |
| 2026-04-21 03:19 | 36.10973 | -5.42125 | 1002 ft | 147 kts | 356° |
| 2026-04-21 03:19 | 36.11969 | -5.42182 | 877 ft | 141 kts | 3° |
| 2026-04-21 03:19 | 36.12907 | -5.41934 | 752 ft | 136 kts | 24° |
| 2026-04-21 03:19 | 36.13701 | -5.41337 | 639 ft | 133 kts | 38° |
| 2026-04-21 03:20 | 36.14299 | -5.40498 | 530 ft | 129 kts | 68° |
| 2026-04-21 03:20 | 36.14599 | -5.39375 | 422 ft | 143 kts | 73° |
| 2026-04-21 03:20 | 36.14853 | -5.38193 | 324 ft | 144 kts | 72° |
| 2026-04-21 03:20 | 36.15075 | -5.36989 | 163 ft | 141 kts | 83° |
| 2026-04-21 03:21 | 36.15097 | -5.35863 | 38 ft | 119 kts | 89° |
| 2026-04-21 03:21 | 36.15113 | -5.35215 | 25 ft | 48 kts | 84° |
| 2026-04-21 03:21 | 36.15132 | -5.34682 | 20 ft | 73 kts | 88° |
| 2026-04-21 03:21 | 36.15152 | -5.34259 | 16 ft | 17 kts | 65° |
| 2026-04-21 03:22 | 36.15237 | -5.34252 | 16 ft | 7 kts | 302° |
| 2026-04-21 03:22 | 36.15242 | -5.34280 | 15 ft | 0 kts | 270° |
| 2026-04-21 03:24 | 36.15242 | -5.34286 | 15 ft | 3 kts | 269° |
| 2026-04-21 03:25 | 36.15238 | -5.34384 | 15 ft | 15 kts | 267° |
| 2026-04-21 03:25 | 36.15225 | -5.34512 | 19 ft | 14 kts | 259° |
| 2026-04-21 03:25 | 36.15239 | -5.34619 | 19 ft | 12 kts | 318° |
| 2026-04-21 03:25 | 36.15260 | -5.34625 | 19 ft | 4 kts | 351° |
| 2026-04-21 03:26 | 36.15292 | -5.34628 | 17 ft | 5 kts | 358° |
| 2026-04-21 03:26 | 36.15303 | -5.34628 | 17 ft | 1 kts | 358° |
| 2026-04-21 03:26 | 36.15306 | -5.34629 | 17 ft | 0 kts | 358° |